Terminal Aerodrome Forecast
Issued by NWS

Home | Current Version | Previous Version | Text Only | Print | Product List | Glossary On
Versions: 1 2 3 4 5 6 7 8 9 10 11 12 13 14 15 16 17 18 19 20 21 22 23 24 25 26 27 28 29 30
000
FTUS43 KDVN 301737
TAFBRL
TAF
KBRL 301737Z 3018/0118 34006KT 6SM HZ SCT022 BKN250
     FM010000 01004KT 6SM HZ SCT022 BKN250
     FM010300 04004KT 6SM HZ BKN150 BKN250
     FM010600 VRB03KT 6SM BR VCSH SCT070 BKN150 BKN250
     FM011200 12004KT 6SM BR VCSH SCT030 BKN070 BKN150=

USA.gov is the U.S. government's official web portal to all federal, state and local government web resources and services.